This is the latest recevied weather packets stored in our database for station/object LU3GHF-13. If no packets are shown the sender has not sent any weather packets the latest 1 day(s).
| Time | Temp. | Humidity | Pressure | Rain* | Wind** | Luminosity | Snow |
|---|---|---|---|---|---|---|---|
| 1778092471 | 31.11° C | 69% | 1001.1 hPa | - | - | - | - |
| 1778087401 | 31.67° C | 66% | 1002.5 hPa | - | - | - | - |
| 1778081840 | 31.11° C | 67% | 1004.3 hPa | - | - | - | - |
| 1778080579 | 30° C | 70% | 1004.7 hPa | - | - | - | - |
| 1778071820 | 25.56° C | 82% | 1006.6 hPa | - | - | - | - |
| 1778068590 | 23.89° C | 88% | 1006.8 hPa | - | - | - | - |
| 1778067944 | 23.89° C | 89% | 1006.7 hPa | - | - | - | - |
| 1778064798 | 23.33° C | 90% | 1006.4 hPa | - | - | - | - |
| 1778062921 | 23.89° C | 90% | 1006 hPa | - | - | - | - |
| 1778061628 | 23.89° C | 89% | 1005.8 hPa | - | - | - | - |
| 1778059750 | 23.89° C | 89% | 1005.5 hPa | - | - | - | - |
| 1778058454 | 23.89° C | 88% | 1005.4 hPa | - | - | - | - |
| 1778057804 | 23.89° C | 88% | 1005.4 hPa | - | - | - | - |
| 1778057174 | 23.89° C | 88% | 1005.3 hPa | - | - | - | - |
| 1778055924 | 23.89° C | 88% | 1005.4 hPa | - | - | - | - |
| 1778053380 | 24.44° C | 87% | 1005.5 hPa | - | - | - | - |
| 1778052129 | 24.44° C | 87% | 1005.6 hPa | - | - | - | - |
| 1778051523 | 24.44° C | 88% | 1005.5 hPa | - | - | - | - |
| 1778050283 | 24.44° C | 87% | 1005.7 hPa | - | - | - | - |
| 1778045916 | 25° C | 87% | 1005.9 hPa | - | - | - | - |
| 1778045289 | 25° C | 87% | 1006 hPa | - | - | - | - |
| 1778044688 | 25° C | 87% | 1006 hPa | - | - | - | - |
| 1778043447 | 25° C | 86% | - | - | - | - | - |
| 1778042832 | 25° C | 87% | 1006 hPa | - | - | - | - |
| 1778041566 | 25° C | 87% | 1006 hPa | - | - | - | - |
* Rain since midnight (hover to see other rain measurements)
** Current wind speed in m/s (hover to see current wind gust speed)